createdAt,value
2023-02-17T00:00:04.819Z,64
2023-02-17T00:01:12.227Z,66
2023-02-17T00:02:27.246Z,61
2023-02-17T00:03:34.472Z,66
2023-02-17T00:04:45.199Z,60
2023-02-17T00:05:53.415Z,63
2023-02-17T00:07:05.151Z,64
2023-02-17T00:08:12.643Z,64
2023-02-17T00:09:19.578Z,61
2023-02-17T00:10:29.259Z,61
2023-02-17T00:11:40.688Z,59
2023-02-17T00:12:47.743Z,62
2023-02-17T00:13:56.484Z,62
2023-02-17T00:15:02.834Z,61
2023-02-17T00:16:13.551Z,57
2023-02-17T00:17:22.002Z,57
2023-02-17T00:18:32.626Z,56
2023-02-17T00:19:40.863Z,56
2023-02-17T00:20:50.567Z,56
2023-02-17T00:21:58.280Z,61
2023-02-17T00:23:07.908Z,52
2023-02-17T00:24:16.374Z,55
2023-02-17T00:25:24.168Z,57
2023-02-17T00:26:34.690Z,64
2023-02-17T00:27:41.730Z,56
2023-02-17T00:28:49.065Z,63
2023-02-17T00:29:58.680Z,57
2023-02-17T00:31:06.204Z,62
2023-02-17T00:32:13.241Z,53
2023-02-17T00:33:20.717Z,62
2023-02-17T00:34:27.665Z,59
2023-02-17T00:35:34.656Z,59
2023-02-17T00:36:42.673Z,57
2023-02-17T00:37:53.978Z,61
2023-02-17T00:39:01.734Z,58
2023-02-17T00:40:09.623Z,60
2023-02-17T00:41:16.778Z,57
2023-02-17T00:42:23.881Z,60
2023-02-17T00:43:30.874Z,57
2023-02-17T00:44:37.851Z,58
2023-02-17T00:45:45.700Z,54
2023-02-17T00:46:55.792Z,57
2023-02-17T00:48:03.622Z,62
2023-02-17T00:49:11.099Z,57
2023-02-17T00:50:23.332Z,58
2023-02-17T00:51:32.937Z,56
2023-02-17T00:52:40.392Z,54
2023-02-17T00:53:47.453Z,54
2023-02-17T00:54:54.515Z,61
2023-02-17T00:56:02.301Z,60
2023-02-17T00:57:10.341Z,59
2023-02-17T00:58:18.141Z,58
2023-02-17T00:59:26.274Z,57
2023-02-17T01:00:33.857Z,58
2023-02-17T01:01:40.918Z,58
2023-02-17T01:02:48.388Z,53
2023-02-17T01:03:55.468Z,54
2023-02-17T01:05:03.424Z,56
2023-02-17T01:06:10.744Z,55
2023-02-17T01:07:17.718Z,57
2023-02-17T01:08:29.730Z,58
2023-02-17T01:09:39.617Z,56
2023-02-17T01:10:50.031Z,58
2023-02-17T01:12:00.402Z,57
2023-02-17T01:13:07.449Z,55
2023-02-17T01:14:14.446Z,53
2023-02-17T01:15:24.402Z,52
2023-02-17T01:16:31.712Z,54
2023-02-17T01:17:41.474Z,56
2023-02-17T01:18:49.079Z,55
2023-02-17T01:19:56.206Z,50
2023-02-17T01:21:05.874Z,48
2023-02-17T01:22:20.702Z,48
2023-02-17T01:23:27.865Z,48
2023-02-17T01:24:37.719Z,53
2023-02-17T01:25:45.236Z,53
2023-02-17T01:26:54.706Z,50
2023-02-17T01:28:02.498Z,45
2023-02-17T01:29:12.305Z,50
2023-02-17T01:30:19.930Z,48
2023-02-17T01:31:29.922Z,50
2023-02-17T01:32:40.310Z,50
2023-02-17T01:33:47.285Z,51
2023-02-17T01:34:57.614Z,48
2023-02-17T01:36:07.633Z,44
2023-02-17T01:37:14.857Z,50
2023-02-17T01:38:24.449Z,48
2023-02-17T01:39:34.239Z,49
2023-02-17T01:40:41.475Z,50
2023-02-17T01:41:49.289Z,52
2023-02-17T01:42:58.860Z,50
2023-02-17T01:44:06.997Z,50
2023-02-17T01:45:17.745Z,51
2023-02-17T01:46:27.586Z,49
2023-02-17T01:47:39.064Z,47
2023-02-17T01:48:46.006Z,48
2023-02-17T01:49:54.588Z,45
2023-02-17T01:51:01.902Z,52
2023-02-17T01:52:12.555Z,44
2023-02-17T01:53:23.780Z,47
2023-02-17T01:54:33.471Z,50
2023-02-17T01:55:46.771Z,47
2023-02-17T01:56:55.625Z,48
2023-02-17T01:58:03.883Z,48
2023-02-17T01:59:12.083Z,48
2023-02-17T02:00:21.867Z,47
2023-02-17T02:01:28.950Z,46
2023-02-17T02:02:38.794Z,50
2023-02-17T02:03:46.614Z,45
2023-02-17T02:04:54.934Z,47
2023-02-17T02:06:04.765Z,42
2023-02-17T02:07:14.868Z,48
2023-02-17T02:08:22.278Z,50
2023-02-17T02:09:29.981Z,45
2023-02-17T02:10:42.739Z,45
2023-02-17T02:11:51.249Z,51
2023-02-17T02:13:01.261Z,51
2023-02-17T02:14:08.655Z,47
2023-02-17T02:15:18.434Z,44
2023-02-17T02:16:26.890Z,48
2023-02-17T02:17:44.556Z,44
2023-02-17T02:19:00.221Z,44
2023-02-17T02:20:12.462Z,46
2023-02-17T02:21:32.507Z,46
2023-02-17T02:22:45.528Z,43
2023-02-17T02:24:03.122Z,46
2023-02-17T02:25:20.267Z,46
2023-02-17T02:26:37.393Z,44
2023-02-17T02:27:54.941Z,47
2023-02-17T02:29:13.228Z,44
2023-02-17T02:30:23.577Z,50
2023-02-17T02:31:43.329Z,43
2023-02-17T02:33:00.484Z,48
2023-02-17T02:34:18.008Z,48
2023-02-17T02:35:25.157Z,50
2023-02-17T02:36:45.728Z,49
2023-02-17T02:37:55.321Z,46
2023-02-17T02:39:15.194Z,45
2023-02-17T02:40:22.511Z,50
2023-02-17T02:41:32.061Z,45
2023-02-17T02:42:39.429Z,42
2023-02-17T02:43:46.438Z,45
2023-02-17T02:44:53.596Z,43
2023-02-17T02:46:03.560Z,42
2023-02-17T02:47:11.612Z,42
2023-02-17T02:48:31.976Z,44
2023-02-17T02:49:38.967Z,44
2023-02-17T02:50:45.980Z,45
2023-02-17T02:52:04.069Z,42
2023-02-17T02:53:16.498Z,45
2023-02-17T02:54:28.580Z,45
2023-02-17T02:55:49.272Z,46
2023-02-17T02:57:06.380Z,45
2023-02-17T02:58:23.992Z,47
2023-02-17T02:59:32.064Z,46
2023-02-17T03:00:47.669Z,45
2023-02-17T03:01:59.693Z,42
2023-02-17T03:03:12.641Z,40
2023-02-17T03:04:20.118Z,41
2023-02-17T03:05:32.423Z,43
2023-02-17T03:06:49.719Z,46
2023-02-17T03:07:59.424Z,45
2023-02-17T03:09:10.136Z,40
2023-02-17T03:10:24.944Z,40
2023-02-17T03:11:33.265Z,47
2023-02-17T03:12:40.514Z,46
2023-02-17T03:13:49.429Z,41
2023-02-17T03:14:59.773Z,41
2023-02-17T03:16:12.602Z,43
2023-02-17T03:17:19.836Z,45
2023-02-17T03:18:27.709Z,45
2023-02-17T03:19:35.639Z,39
2023-02-17T03:20:45.299Z,42
2023-02-17T03:21:52.916Z,45
2023-02-17T03:23:08.893Z,42
2023-02-17T03:24:16.031Z,43
2023-02-17T03:25:22.972Z,40
2023-02-17T03:26:30.203Z,42
2023-02-17T03:27:40.035Z,44
2023-02-17T03:28:49.990Z,42
2023-02-17T03:29:57.331Z,44
2023-02-17T03:31:07.302Z,44
2023-02-17T03:32:14.692Z,40
2023-02-17T03:33:22.596Z,43
2023-02-17T03:34:29.954Z,43
2023-02-17T03:35:39.717Z,41
2023-02-17T03:36:48.129Z,44
2023-02-17T03:37:56.305Z,42
2023-02-17T03:39:06.206Z,44
2023-02-17T03:40:15.937Z,43
2023-02-17T03:41:23.341Z,41
2023-02-17T03:42:33.189Z,43
2023-02-17T03:43:40.223Z,41
2023-02-17T03:44:49.859Z,44
2023-02-17T03:45:57.497Z,47
2023-02-17T03:47:08.137Z,44
2023-02-17T03:48:16.376Z,42
2023-02-17T03:49:26.099Z,40
2023-02-17T03:50:33.837Z,43
2023-02-17T03:51:43.399Z,41
2023-02-17T03:52:51.668Z,41
2023-02-17T03:54:01.280Z,38
2023-02-17T03:55:09.073Z,43
2023-02-17T03:56:17.786Z,44
2023-02-17T03:57:25.013Z,37
2023-02-17T03:58:35.389Z,38
2023-02-17T03:59:43.709Z,44
2023-02-17T04:00:53.829Z,39
2023-02-17T04:02:00.881Z,42
2023-02-17T04:03:10.681Z,43
2023-02-17T04:04:17.669Z,45
2023-02-17T04:05:24.660Z,40
2023-02-17T04:06:32.815Z,40
2023-02-17T04:07:40.017Z,36
2023-02-17T04:08:49.912Z,38
2023-02-17T04:09:59.763Z,38
2023-02-17T04:11:09.744Z,42
2023-02-17T04:12:17.159Z,44
2023-02-17T04:13:27.830Z,43
2023-02-17T04:14:35.201Z,39
2023-02-17T04:15:42.389Z,42
2023-02-17T04:16:50.295Z,43
2023-02-17T04:18:01.586Z,41
2023-02-17T04:19:10.327Z,39
2023-02-17T04:20:18.333Z,45
2023-02-17T04:21:26.276Z,41
2023-02-17T04:22:33.272Z,42
2023-02-17T04:23:41.209Z,39
2023-02-17T04:24:48.402Z,40
2023-02-17T04:25:59.511Z,42
2023-02-17T04:27:09.454Z,40
2023-02-17T04:28:19.190Z,41
2023-02-17T04:29:27.853Z,40
2023-02-17T04:30:37.682Z,40
2023-02-17T04:31:48.262Z,40
2023-02-17T04:32:55.218Z,43
2023-02-17T04:34:03.996Z,44
2023-02-17T04:35:11.277Z,40
2023-02-17T04:36:18.369Z,39
2023-02-17T04:37:25.633Z,46
2023-02-17T04:38:33.489Z,38
2023-02-17T04:39:44.318Z,42
2023-02-17T04:40:51.611Z,40
2023-02-17T04:41:58.745Z,44
2023-02-17T04:43:09.653Z,39
2023-02-17T04:44:17.048Z,40
2023-02-17T04:45:24.994Z,41
2023-02-17T04:46:32.047Z,43
2023-02-17T04:47:39.046Z,44
2023-02-17T04:48:48.885Z,40
2023-02-17T04:49:57.220Z,40
2023-02-17T04:51:04.317Z,37
2023-02-17T04:52:12.097Z,38
2023-02-17T04:53:19.257Z,39
2023-02-17T04:54:26.362Z,42
2023-02-17T04:55:33.634Z,38
2023-02-17T04:56:44.385Z,40
2023-02-17T04:57:53.958Z,36
2023-02-17T04:59:01.649Z,38
2023-02-17T05:00:08.831Z,37
2023-02-17T05:01:16.928Z,36
2023-02-17T05:02:24.561Z,40
2023-02-17T05:03:31.998Z,39
2023-02-17T05:04:40.052Z,43
2023-02-17T05:05:50.111Z,43
2023-02-17T05:07:00.429Z,40
2023-02-17T05:08:08.645Z,41
2023-02-17T05:09:18.426Z,43
2023-02-17T05:10:26.010Z,40
2023-02-17T05:11:33.936Z,40
2023-02-17T05:12:41.760Z,38
2023-02-17T05:13:48.813Z,39
2023-02-17T05:14:58.580Z,41
2023-02-17T05:16:08.653Z,44
2023-02-17T05:17:18.024Z,38
2023-02-17T05:18:25.662Z,38
2023-02-17T05:19:35.627Z,41
2023-02-17T05:20:45.366Z,39
2023-02-17T05:21:53.765Z,39
2023-02-17T05:23:02.639Z,42
2023-02-17T05:24:09.766Z,42
2023-02-17T05:25:18.408Z,42
2023-02-17T05:26:26.678Z,40
2023-02-17T05:27:33.876Z,43
2023-02-17T05:28:41.893Z,40
2023-02-17T05:29:49.232Z,42
2023-02-17T05:30:59.264Z,37
2023-02-17T05:32:09.127Z,43
2023-02-17T05:33:18.689Z,43
2023-02-17T05:34:26.400Z,42
2023-02-17T05:35:35.093Z,44
2023-02-17T05:36:42.508Z,44
2023-02-17T05:37:50.858Z,44
2023-02-17T05:38:57.951Z,44
2023-02-17T05:40:06.175Z,42
2023-02-17T05:41:16.165Z,44
2023-02-17T05:42:24.022Z,43
2023-02-17T05:43:33.679Z,40
2023-02-17T05:44:41.704Z,43
2023-02-17T05:45:51.660Z,38
2023-02-17T05:46:58.854Z,41
2023-02-17T05:48:06.755Z,42
2023-02-17T05:49:14.642Z,40
2023-02-17T05:50:23.006Z,40
2023-02-17T05:51:31.127Z,37
2023-02-17T05:52:38.117Z,43
2023-02-17T05:53:45.205Z,37
2023-02-17T05:54:54.637Z,38
2023-02-17T05:56:05.525Z,38
2023-02-17T05:57:12.189Z,40
2023-02-17T05:58:21.788Z,38
2023-02-17T05:59:29.036Z,39
2023-02-17T06:00:36.691Z,41
2023-02-17T06:01:46.464Z,40
2023-02-17T06:02:54.410Z,42
2023-02-17T06:04:05.262Z,38
2023-02-17T06:05:12.382Z,40
2023-02-17T06:06:20.061Z,41
2023-02-17T06:07:28.005Z,42
2023-02-17T06:08:38.095Z,42
2023-02-17T06:09:47.265Z,40
2023-02-17T06:10:53.449Z,39
2023-02-17T06:12:01.179Z,41
2023-02-17T06:13:10.199Z,40
2023-02-17T06:14:17.138Z,39
2023-02-17T06:15:26.899Z,40
2023-02-17T06:16:34.472Z,38
2023-02-17T06:17:44.907Z,40
2023-02-17T06:18:52.200Z,40
2023-02-17T06:20:00.169Z,39
2023-02-17T06:21:08.392Z,44
2023-02-17T06:22:18.553Z,42
2023-02-17T06:23:23.360Z,38
2023-02-17T06:24:33.151Z,42
2023-02-17T06:25:42.703Z,38
2023-02-17T06:26:49.719Z,38
2023-02-17T06:27:58.391Z,40
2023-02-17T06:29:05.394Z,41
2023-02-17T06:30:15.470Z,36
2023-02-17T06:31:23.448Z,44
2023-02-17T06:32:32.171Z,39
2023-02-17T06:33:39.756Z,42
2023-02-17T06:34:50.215Z,43
2023-02-17T06:35:59.868Z,41
2023-02-17T06:37:09.574Z,41
2023-02-17T06:38:17.011Z,41
2023-02-17T06:39:24.847Z,39
2023-02-17T06:40:32.755Z,38
2023-02-17T06:41:40.537Z,41
2023-02-17T06:42:48.738Z,43
2023-02-17T06:43:58.401Z,38
2023-02-17T06:45:05.610Z,40
2023-02-17T06:46:15.668Z,40
2023-02-17T06:47:22.854Z,44
2023-02-17T06:48:30.300Z,43
2023-02-17T06:49:40.933Z,43
2023-02-17T06:50:47.585Z,40
2023-02-17T06:51:55.389Z,46
2023-02-17T06:53:06.020Z,41
2023-02-17T06:54:15.866Z,44
2023-02-17T06:55:22.800Z,41
2023-02-17T06:56:30.047Z,43
2023-02-17T06:57:41.709Z,43
2023-02-17T06:58:53.152Z,44
2023-02-17T07:00:01.656Z,41
2023-02-17T07:01:10.132Z,42
2023-02-17T07:02:20.841Z,42
2023-02-17T07:03:32.220Z,44
2023-02-17T07:04:39.650Z,44
2023-02-17T07:05:49.177Z,37
2023-02-17T07:06:56.477Z,41
2023-02-17T07:08:06.161Z,40
2023-02-17T07:09:14.572Z,43
2023-02-17T07:10:25.279Z,45
2023-02-17T07:11:32.617Z,42
2023-02-17T07:12:39.620Z,41
2023-02-17T07:13:48.837Z,43
2023-02-17T07:14:55.940Z,42
2023-02-17T07:16:03.959Z,43
2023-02-17T07:17:10.834Z,43
2023-02-17T07:18:19.193Z,37
2023-02-17T07:19:27.356Z,41
2023-02-17T07:20:39.146Z,43
2023-02-17T07:21:44.094Z,41
2023-02-17T07:22:53.205Z,44
2023-02-17T07:24:00.755Z,40
2023-02-17T07:25:08.029Z,38
2023-02-17T07:26:15.698Z,39
2023-02-17T07:27:26.859Z,37
2023-02-17T07:28:38.136Z,40
2023-02-17T07:29:45.479Z,43
2023-02-17T07:30:56.948Z,41
2023-02-17T07:32:08.957Z,44
2023-02-17T07:33:15.751Z,42
2023-02-17T07:34:24.445Z,39
2023-02-17T07:35:31.378Z,41
2023-02-17T07:36:38.298Z,40
2023-02-17T07:37:46.028Z,41
2023-02-17T07:38:52.895Z,41
2023-02-17T07:39:59.851Z,39
2023-02-17T07:41:06.853Z,39
2023-02-17T07:42:17.236Z,45
2023-02-17T07:43:25.976Z,43
2023-02-17T07:44:32.878Z,42
2023-02-17T07:45:41.470Z,40
2023-02-17T07:46:48.345Z,40
2023-02-17T07:47:58.358Z,41
2023-02-17T07:49:09.393Z,37
2023-02-17T07:50:19.941Z,39
2023-02-17T07:51:29.629Z,39
2023-02-17T07:52:38.437Z,41
2023-02-17T07:53:47.177Z,44
2023-02-17T07:54:55.953Z,43
2023-02-17T07:56:02.994Z,39
2023-02-17T07:57:10.092Z,39
2023-02-17T07:58:16.985Z,38
2023-02-17T07:59:24.055Z,40
2023-02-17T08:00:30.938Z,38
2023-02-17T08:01:37.962Z,40
2023-02-17T08:02:44.927Z,40
2023-02-17T08:03:58.112Z,39
2023-02-17T08:05:05.007Z,40
2023-02-17T08:06:12.003Z,41
2023-02-17T08:07:26.648Z,41
2023-02-17T08:08:33.730Z,39
2023-02-17T08:09:45.664Z,39
2023-02-17T08:10:57.649Z,39
2023-02-17T08:12:10.322Z,39
2023-02-17T08:13:22.240Z,39
2023-02-17T08:14:29.203Z,40
2023-02-17T08:15:36.010Z,45
2023-02-17T08:16:43.174Z,34
2023-02-17T08:17:51.189Z,36
2023-02-17T08:18:57.950Z,33
2023-02-17T08:20:08.514Z,35
2023-02-17T08:21:13.538Z,36
2023-02-17T08:22:20.641Z,38
2023-02-17T08:23:27.343Z,38
2023-02-17T08:24:34.263Z,36
2023-02-17T08:25:41.190Z,38
2023-02-17T08:26:48.371Z,38
2023-02-17T08:27:55.412Z,33
2023-02-17T08:29:02.342Z,39
2023-02-17T08:30:09.297Z,38
2023-02-17T08:31:17.133Z,37
2023-02-17T08:32:26.978Z,34
2023-02-17T08:33:33.871Z,35
2023-02-17T08:34:41.593Z,35
2023-02-17T08:35:48.632Z,35
2023-02-17T08:36:55.418Z,37
2023-02-17T08:38:02.388Z,40
2023-02-17T08:39:09.355Z,38
2023-02-17T08:40:16.328Z,38
2023-02-17T08:41:24.007Z,35
2023-02-17T08:42:33.566Z,34
2023-02-17T08:43:41.290Z,35
2023-02-17T08:44:48.113Z,32
2023-02-17T08:45:55.726Z,35
2023-02-17T08:47:02.560Z,34
2023-02-17T08:48:10.478Z,35
2023-02-17T08:49:17.357Z,35
2023-02-17T08:50:25.065Z,36
2023-02-17T08:51:31.988Z,36
2023-02-17T08:52:38.984Z,34
2023-02-17T08:53:46.254Z,34
2023-02-17T08:54:53.913Z,36
2023-02-17T08:56:00.849Z,34
2023-02-17T08:57:07.985Z,34
2023-02-17T08:58:15.825Z,34
2023-02-17T08:59:22.738Z,34
2023-02-17T09:00:29.970Z,32
2023-02-17T09:01:38.699Z,33
2023-02-17T09:02:45.737Z,35
2023-02-17T09:03:52.642Z,37
2023-02-17T09:05:02.609Z,36
2023-02-17T09:06:10.266Z,37
2023-02-17T09:07:17.226Z,37
2023-02-17T09:08:24.048Z,38
2023-02-17T09:09:31.037Z,37
2023-02-17T09:10:38.920Z,35
2023-02-17T09:11:45.749Z,34
2023-02-17T09:12:52.656Z,33
2023-02-17T09:13:59.578Z,34
2023-02-17T09:15:07.485Z,36
2023-02-17T09:16:14.512Z,35
2023-02-17T09:17:23.377Z,35
2023-02-17T09:18:30.224Z,36
2023-02-17T09:19:37.085Z,34
2023-02-17T09:20:44.050Z,37
2023-02-17T09:21:51.120Z,35
2023-02-17T09:22:57.932Z,34
2023-02-17T09:24:04.851Z,33
2023-02-17T09:25:12.419Z,31
2023-02-17T09:26:19.366Z,33
2023-02-17T09:27:26.536Z,34
2023-02-17T09:28:33.418Z,31
2023-02-17T09:29:40.475Z,34
2023-02-17T09:30:47.556Z,32
2023-02-17T09:31:55.973Z,32
2023-02-17T09:33:02.806Z,29
2023-02-17T09:34:09.760Z,29
2023-02-17T09:35:17.437Z,29
2023-02-17T09:36:24.398Z,30
2023-02-17T09:37:32.121Z,29
2023-02-17T09:38:39.720Z,30
2023-02-17T09:39:46.625Z,30
2023-02-17T09:40:53.575Z,31
2023-02-17T09:42:00.559Z,34
2023-02-17T09:43:07.774Z,30
2023-02-17T09:44:17.089Z,30
2023-02-17T09:45:29.185Z,32
2023-02-17T09:46:36.478Z,33
2023-02-17T09:47:43.323Z,30
2023-02-17T09:48:50.181Z,33
2023-02-17T09:49:57.190Z,32
2023-02-17T09:51:05.095Z,30
2023-02-17T09:52:12.039Z,32
2023-02-17T09:53:29.067Z,31
2023-02-17T09:54:41.264Z,31
2023-02-17T09:55:58.229Z,32
2023-02-17T09:57:05.173Z,35
2023-02-17T09:58:12.121Z,30
2023-02-17T09:59:21.569Z,29
2023-02-17T10:00:28.500Z,31
2023-02-17T10:01:39.331Z,32
2023-02-17T10:02:47.105Z,31
2023-02-17T10:04:04.116Z,31
2023-02-17T10:05:18.738Z,26
2023-02-17T10:06:26.762Z,29
2023-02-17T10:07:33.792Z,30
2023-02-17T10:08:43.352Z,27
2023-02-17T10:09:56.959Z,29
2023-02-17T10:11:06.640Z,28
2023-02-17T10:12:13.709Z,29
2023-02-17T10:13:23.696Z,30
2023-02-17T10:14:30.636Z,31
2023-02-17T10:15:42.586Z,29
2023-02-17T10:16:49.450Z,30
2023-02-17T10:17:57.283Z,34
2023-02-17T10:19:12.213Z,26
2023-02-17T10:20:19.062Z,31
2023-02-17T10:21:29.862Z,29
2023-02-17T10:22:47.689Z,30
2023-02-17T10:23:54.635Z,29
2023-02-17T10:25:01.575Z,32
2023-02-17T10:26:17.343Z,31
2023-02-17T10:27:34.237Z,28
2023-02-17T10:28:46.269Z,28
2023-02-17T10:29:59.003Z,30
2023-02-17T10:31:16.032Z,27
2023-02-17T10:32:25.885Z,30
2023-02-17T10:33:33.424Z,32
2023-02-17T10:34:47.834Z,31
2023-02-17T10:36:05.083Z,32
2023-02-17T10:37:21.847Z,30
2023-02-17T10:38:38.787Z,30
2023-02-17T10:39:56.749Z,31
2023-02-17T10:41:03.744Z,32
2023-02-17T10:42:10.613Z,33
2023-02-17T10:43:27.638Z,32
2023-02-17T10:44:35.587Z,33
2023-02-17T10:45:42.524Z,36
2023-02-17T10:46:49.479Z,33
2023-02-17T10:47:56.791Z,32
2023-02-17T10:49:07.211Z,33
2023-02-17T10:50:23.285Z,33
2023-02-17T10:51:30.228Z,34
2023-02-17T10:52:37.067Z,31
2023-02-17T10:53:44.033Z,32
2023-02-17T10:54:50.983Z,30
2023-02-17T10:56:00.705Z,31
2023-02-17T10:57:12.677Z,28
2023-02-17T10:58:19.676Z,31
2023-02-17T10:59:34.796Z,31
2023-02-17T11:00:49.007Z,34
2023-02-17T11:01:55.965Z,31
2023-02-17T11:03:13.038Z,33
2023-02-17T11:04:22.567Z,34
2023-02-17T11:05:29.437Z,36
2023-02-17T11:06:37.569Z,33
2023-02-17T11:07:44.480Z,30
2023-02-17T11:08:52.817Z,31
2023-02-17T11:10:02.461Z,32
2023-02-17T11:11:22.297Z,32
2023-02-17T11:12:30.222Z,33
2023-02-17T11:13:37.084Z,33
2023-02-17T11:14:44.062Z,33
2023-02-17T11:15:53.725Z,32
2023-02-17T11:17:02.292Z,33
2023-02-17T11:18:17.070Z,31
2023-02-17T11:19:23.987Z,32
2023-02-17T11:20:35.252Z,30
2023-02-17T11:21:42.296Z,32
2023-02-17T11:22:49.224Z,29
2023-02-17T11:24:06.258Z,30
2023-02-17T11:25:13.154Z,31
2023-02-17T11:26:26.244Z,32
2023-02-17T11:27:34.963Z,31
2023-02-17T11:28:42.695Z,29
2023-02-17T11:29:52.155Z,29
2023-02-17T11:31:04.180Z,30
2023-02-17T11:32:12.597Z,30
2023-02-17T11:33:19.331Z,30
2023-02-17T11:34:31.460Z,32
2023-02-17T11:35:39.221Z,29
2023-02-17T11:36:50.390Z,31
2023-02-17T11:38:02.366Z,29
2023-02-17T11:39:14.316Z,28
2023-02-17T11:40:23.198Z,31
2023-02-17T11:41:29.129Z,28
2023-02-17T11:42:43.278Z,32
2023-02-17T11:43:50.239Z,30
2023-02-17T11:44:57.060Z,32
2023-02-17T11:46:05.151Z,32
2023-02-17T11:47:19.536Z,32
2023-02-17T11:48:36.503Z,35
2023-02-17T11:49:53.495Z,38
2023-02-17T11:51:05.445Z,35
2023-02-17T11:52:17.450Z,32
2023-02-17T11:53:32.198Z,30
2023-02-17T11:54:47.018Z,31
2023-02-17T11:57:08.273Z,31
2023-02-17T11:58:20.413Z,30
2023-02-17T11:59:33.353Z,32
2023-02-17T12:00:50.583Z,36
2023-02-17T12:02:04.488Z,33
2023-02-17T12:03:20.449Z,33
2023-02-17T12:04:35.458Z,33
2023-02-17T12:05:45.003Z,32
2023-02-17T12:07:02.243Z,31
2023-02-17T12:08:19.446Z,32
2023-02-17T12:09:35.323Z,29
2023-02-17T12:10:50.040Z,30
2023-02-17T12:12:04.782Z,31
2023-02-17T12:13:17.441Z,32
2023-02-17T12:14:29.754Z,32
2023-02-17T12:15:41.501Z,29
2023-02-17T12:16:56.681Z,30
2023-02-17T12:18:11.754Z,29
2023-02-17T12:19:24.667Z,31
2023-02-17T12:20:34.390Z,28
2023-02-17T12:21:49.946Z,27
2023-02-17T12:23:03.014Z,30
2023-02-17T12:24:20.371Z,31
2023-02-17T12:25:37.596Z,32
2023-02-17T12:26:49.688Z,31
2023-02-17T12:28:04.712Z,29
2023-02-17T12:29:17.825Z,29
2023-02-17T12:30:31.513Z,29
2023-02-17T12:31:47.532Z,27
2023-02-17T12:33:02.389Z,29
2023-02-17T12:34:20.581Z,28
2023-02-17T12:35:38.623Z,26
2023-02-17T12:36:55.948Z,31
2023-02-17T12:38:03.066Z,31
2023-02-17T12:39:18.162Z,30
2023-02-17T12:40:25.357Z,33
2023-02-17T12:41:38.216Z,28
2023-02-17T12:42:50.168Z,30
2023-02-17T12:43:56.948Z,26
2023-02-17T12:45:14.196Z,31
2023-02-17T12:46:23.932Z,30
2023-02-17T12:47:35.979Z,31
2023-02-17T12:48:50.873Z,30
2023-02-17T12:50:02.204Z,28
2023-02-17T12:51:14.280Z,24
2023-02-17T12:52:24.185Z,29
2023-02-17T12:53:33.957Z,26
2023-02-17T12:54:46.018Z,29
2023-02-17T12:55:52.988Z,30
2023-02-17T12:56:59.970Z,26
2023-02-17T12:58:18.117Z,26
2023-02-17T12:59:26.748Z,29
2023-02-17T13:00:38.881Z,28
2023-02-17T13:01:46.833Z,27
2023-02-17T13:02:53.752Z,26
2023-02-17T13:04:00.681Z,24
2023-02-17T13:05:07.620Z,23
2023-02-17T13:06:14.451Z,25
2023-02-17T13:07:28.440Z,25
2023-02-17T13:08:46.523Z,24
2023-02-17T13:09:53.320Z,24
2023-02-17T13:11:00.389Z,23
2023-02-17T13:12:08.954Z,25
2023-02-17T13:13:15.881Z,23
2023-02-17T13:14:27.944Z,24
2023-02-17T13:15:43.636Z,20
2023-02-17T13:16:50.466Z,25
2023-02-17T13:17:58.357Z,25
2023-02-17T13:19:10.240Z,25
2023-02-17T13:20:17.313Z,26
2023-02-17T13:21:28.138Z,24
2023-02-17T13:22:35.082Z,25
2023-02-17T13:23:41.976Z,21
2023-02-17T13:24:48.789Z,24
2023-02-17T13:25:57.217Z,27
2023-02-17T13:27:04.429Z,24
2023-02-17T13:28:21.820Z,23
2023-02-17T13:29:33.724Z,25
2023-02-17T13:30:40.890Z,22
2023-02-17T13:31:47.863Z,23
2023-02-17T13:32:57.331Z,25
2023-02-17T13:34:04.458Z,26
2023-02-17T13:35:11.397Z,24
2023-02-17T13:36:21.753Z,26
2023-02-17T13:37:31.428Z,24
2023-02-17T13:38:38.432Z,24
2023-02-17T13:39:46.154Z,23
2023-02-17T13:40:54.008Z,22
2023-02-17T13:42:04.159Z,25
2023-02-17T13:43:21.173Z,30
2023-02-17T13:44:29.210Z,26
2023-02-17T13:45:36.126Z,27
2023-02-17T13:46:51.114Z,25
2023-02-17T13:47:57.971Z,25
2023-02-17T13:49:14.975Z,25
2023-02-17T13:50:24.507Z,26
2023-02-17T13:51:31.419Z,26
2023-02-17T13:52:38.258Z,27
2023-02-17T13:53:45.216Z,23
2023-02-17T13:54:52.884Z,30
2023-02-17T13:56:00.677Z,28
2023-02-17T13:57:13.770Z,26
2023-02-17T13:58:27.759Z,26
2023-02-17T13:59:37.725Z,27
2023-02-17T14:00:44.633Z,28
2023-02-17T14:01:51.485Z,28
2023-02-17T14:02:58.418Z,27
2023-02-17T14:04:15.489Z,27
2023-02-17T14:05:23.118Z,26
2023-02-17T14:06:35.002Z,25
2023-02-17T14:07:42.886Z,25
2023-02-17T14:08:49.813Z,27
2023-02-17T14:09:57.033Z,27
2023-02-17T14:11:03.896Z,26
2023-02-17T14:12:10.764Z,26
2023-02-17T14:13:17.914Z,26
2023-02-17T14:14:24.799Z,30
2023-02-17T14:15:31.717Z,27
2023-02-17T14:16:38.664Z,25
2023-02-17T14:17:45.464Z,27
2023-02-17T14:18:52.280Z,27
2023-02-17T14:20:10.224Z,26
2023-02-17T14:21:27.037Z,25
2023-02-17T14:22:33.976Z,28
2023-02-17T14:23:40.913Z,26
2023-02-17T14:24:50.548Z,24
2023-02-17T14:26:05.516Z,26
2023-02-17T14:27:14.772Z,27
2023-02-17T14:28:21.747Z,27
2023-02-17T14:29:28.648Z,27
2023-02-17T14:30:40.849Z,26
2023-02-17T14:31:48.447Z,30
2023-02-17T14:32:55.262Z,25
2023-02-17T14:34:05.915Z,28
2023-02-17T14:35:20.616Z,27
2023-02-17T14:36:27.590Z,26
2023-02-17T14:37:37.436Z,30
2023-02-17T14:38:44.418Z,28
2023-02-17T14:39:51.492Z,27
2023-02-17T14:41:00.423Z,28
2023-02-17T14:42:07.400Z,29
2023-02-17T14:43:14.462Z,27
2023-02-17T14:44:21.627Z,28
2023-02-17T14:45:28.709Z,26
2023-02-17T14:46:35.726Z,26
2023-02-17T14:47:43.421Z,29
2023-02-17T14:48:50.401Z,28
2023-02-17T14:49:57.331Z,25
2023-02-17T14:51:04.294Z,29
2023-02-17T14:52:13.737Z,25
2023-02-17T14:53:23.320Z,26
2023-02-17T14:54:36.144Z,30
2023-02-17T14:55:44.028Z,25
2023-02-17T14:56:54.704Z,27
2023-02-17T14:58:06.642Z,27
2023-02-17T14:59:16.152Z,26
2023-02-17T15:00:22.984Z,26
2023-02-17T15:01:31.080Z,28
2023-02-17T15:02:37.903Z,27
2023-02-17T15:03:44.860Z,27
2023-02-17T15:04:51.764Z,28
2023-02-17T15:05:58.664Z,25
2023-02-17T15:07:06.474Z,28
2023-02-17T15:08:16.159Z,28
2023-02-17T15:09:23.137Z,29
2023-02-17T15:10:33.109Z,28
2023-02-17T15:11:40.065Z,28
2023-02-17T15:12:46.980Z,29
2023-02-17T15:13:53.903Z,26
2023-02-17T15:15:01.554Z,30
2023-02-17T15:16:09.068Z,25
2023-02-17T15:17:15.603Z,27
2023-02-17T15:18:22.647Z,27
2023-02-17T15:19:29.531Z,26
2023-02-17T15:20:36.432Z,31
2023-02-17T15:21:43.294Z,25
2023-02-17T15:22:50.183Z,28
2023-02-17T15:23:57.113Z,27
2023-02-17T15:25:04.033Z,29
2023-02-17T15:26:21.046Z,27
2023-02-17T15:27:27.949Z,26
2023-02-17T15:28:34.690Z,29
2023-02-17T15:29:41.673Z,28
2023-02-17T15:30:48.557Z,29
2023-02-17T15:31:55.667Z,28
2023-02-17T15:33:02.420Z,26
2023-02-17T15:34:15.072Z,26
2023-02-17T15:35:22.236Z,25
2023-02-17T15:36:29.108Z,28
2023-02-17T15:37:36.208Z,25
2023-02-17T15:38:43.448Z,30
2023-02-17T15:39:51.654Z,28
2023-02-17T15:41:00.292Z,26
2023-02-17T15:42:07.328Z,23
2023-02-17T15:43:14.136Z,28
2023-02-17T15:44:21.041Z,26
2023-02-17T15:45:32.053Z,22
2023-02-17T15:46:39.950Z,23
2023-02-17T15:47:47.707Z,25
2023-02-17T15:48:54.616Z,25
2023-02-17T15:50:01.607Z,25
2023-02-17T15:51:08.742Z,26
2023-02-17T15:52:15.662Z,26
2023-02-17T15:53:23.568Z,26
2023-02-17T15:54:30.619Z,27
2023-02-17T15:55:37.562Z,26
2023-02-17T15:56:45.326Z,26
2023-02-17T15:57:52.199Z,26
2023-02-17T15:58:59.087Z,27
2023-02-17T16:00:05.941Z,28
2023-02-17T16:01:18.017Z,27
2023-02-17T16:02:30.825Z,26
2023-02-17T16:03:37.818Z,23
2023-02-17T16:04:44.650Z,23
2023-02-17T16:05:52.363Z,24
2023-02-17T16:06:59.238Z,27
2023-02-17T16:08:06.922Z,25
2023-02-17T16:09:14.742Z,25
2023-02-17T16:10:21.651Z,28
2023-02-17T16:11:28.757Z,28
2023-02-17T16:12:36.049Z,27
2023-02-17T16:13:42.942Z,27
2023-02-17T16:14:49.935Z,26
2023-02-17T16:15:56.946Z,27
2023-02-17T16:17:05.414Z,28
2023-02-17T16:18:16.082Z,30
2023-02-17T16:19:23.412Z,26
2023-02-17T16:20:33.011Z,27
2023-02-17T16:21:39.105Z,28
2023-02-17T16:22:45.983Z,28
2023-02-17T16:23:54.149Z,26
2023-02-17T16:25:01.080Z,26
2023-02-17T16:26:08.339Z,28
2023-02-17T16:27:25.126Z,28
2023-02-17T16:28:34.097Z,26